createdAt,value
2019-06-01T00:01:44.680Z,100776.55
2019-06-01T00:04:19.223Z,100777.23
2019-06-01T00:06:55.363Z,100780.26
2019-06-01T00:09:28.320Z,100779.16
2019-06-01T00:12:00.780Z,100775.02
2019-06-01T00:14:36.137Z,100776.23
2019-06-01T00:17:09.515Z,100773.89
2019-06-01T00:19:44.374Z,100774.77
2019-06-01T00:22:18.353Z,100771.36
2019-06-01T00:24:52.682Z,100768.13
2019-06-01T00:27:28.045Z,100768.81
2019-06-01T00:30:04.667Z,100764.48
2019-06-01T00:32:41.008Z,100768.81
2019-06-01T00:35:13.435Z,100766.14
2019-06-01T00:37:47.611Z,100764.33
2019-06-01T00:40:22.386Z,100771.38
2019-06-01T00:42:55.784Z,100766.66
2019-06-01T00:45:30.175Z,100768.06
2019-06-01T00:48:03.535Z,100768.17
2019-06-01T00:50:43.066Z,100768.03
2019-06-01T00:53:17.750Z,100763.58
2019-06-01T00:55:51.736Z,100765.59
2019-06-01T00:58:25.076Z,100763.41
2019-06-01T01:00:58.811Z,100765.89
2019-06-01T01:03:31.848Z,100772.45
2019-06-01T01:06:04.238Z,100776.55
2019-06-01T01:08:36.723Z,100779.97
2019-06-01T01:11:09.757Z,100778.29
2019-06-01T01:13:42.783Z,100778.06
2019-06-01T01:16:15.099Z,100777.41
2019-06-01T01:18:47.792Z,100783.11
2019-06-01T01:21:20.148Z,100777.88
2019-06-01T01:23:53.141Z,100773.55
2019-06-01T01:26:25.871Z,100770.23
2019-06-01T01:28:58.407Z,100774.51
2019-06-01T01:31:32.719Z,100774.38
2019-06-01T01:34:05.131Z,100773.86
2019-06-01T01:36:38.728Z,100777.34
2019-06-01T01:39:11.106Z,100773.75
2019-06-01T01:41:44.531Z,100770.17
2019-06-01T01:44:17.216Z,100768.02
2019-06-01T01:46:50.698Z,100763.33
2019-06-01T01:49:23.106Z,100762.69
2019-06-01T01:51:55.490Z,100759.68
2019-06-01T01:54:28.871Z,100765.14
2019-06-01T01:57:02.846Z,100761.58
2019-06-01T01:59:35.320Z,100762.41
2019-06-01T02:02:07.727Z,100766.22
2019-06-01T02:04:40.888Z,100763.33
2019-06-01T02:07:13.304Z,100760.88
2019-06-01T02:09:45.746Z,100760.20
2019-06-01T02:12:18.924Z,100756.72
2019-06-01T02:14:51.661Z,100765.78
2019-06-01T02:17:24.179Z,100764.59
2019-06-01T02:19:56.551Z,100764.81
2019-06-01T02:22:28.958Z,100759.87
2019-06-01T02:25:02.158Z,100756.64
2019-06-01T02:27:34.734Z,100755.03
2019-06-01T02:30:07.448Z,100751.68
2019-06-01T02:32:39.847Z,100757.79
2019-06-01T02:35:12.314Z,100755.58
2019-06-01T02:37:44.669Z,100748.44
2019-06-01T02:40:18.154Z,100745.14
2019-06-01T02:42:50.476Z,100745.73
2019-06-01T02:45:23.737Z,100743.82
2019-06-01T02:47:57.443Z,100737.16
2019-06-01T02:50:31.142Z,100739.75
2019-06-01T02:53:03.631Z,100735.91
2019-06-01T02:55:37.733Z,100739.41
2019-06-01T02:58:11.111Z,100741.63
2019-06-01T03:01:29.198Z,100743.80
2019-06-01T03:04:03.361Z,100744.59
2019-06-01T03:06:38.121Z,100740.70
2019-06-01T03:09:10.544Z,100733.24
2019-06-01T03:11:42.998Z,100732.95
2019-06-01T03:14:15.381Z,100734.06
2019-06-01T03:16:47.839Z,100738.95
2019-06-01T03:19:20.240Z,100735.13
2019-06-01T03:21:56.529Z,100735.47
2019-06-01T03:24:31.388Z,100742.63
2019-06-01T03:27:04.697Z,100743.12
2019-06-01T03:29:40.601Z,100747.23
2019-06-01T03:32:29.058Z,100749.50
2019-06-01T03:35:07.458Z,100748.27
2019-06-01T03:37:39.813Z,100749.78
2019-06-01T03:40:23.243Z,100753.48
2019-06-01T03:42:56.340Z,100748.13
2019-06-01T03:45:29.459Z,100746.28
2019-06-01T03:48:02.810Z,100743.89
2019-06-01T03:50:37.125Z,100746.62
2019-06-01T03:53:09.953Z,100749.20
2019-06-01T03:55:42.386Z,100745.00
2019-06-01T03:58:14.766Z,100741.35
2019-06-01T04:00:48.954Z,100745.05
2019-06-01T04:03:22.531Z,100746.75
2019-06-01T04:05:54.983Z,100744.56
2019-06-01T04:08:32.275Z,100752.97
2019-06-01T04:11:05.672Z,100752.48
2019-06-01T04:13:39.023Z,100753.60
2019-06-01T04:16:16.784Z,100758.97
2019-06-01T04:18:50.725Z,100757.54
2019-06-01T04:21:23.151Z,100761.80
2019-06-01T04:23:57.577Z,100759.34
2019-06-01T04:26:39.884Z,100760.92
2019-06-01T04:29:21.935Z,100763.85
2019-06-01T04:31:54.926Z,100761.72
2019-06-01T04:34:28.125Z,100764.53
2019-06-01T04:37:03.436Z,100768.23
2019-06-01T04:39:36.601Z,100771.25
2019-06-01T04:42:09.757Z,100777.23
2019-06-01T04:44:42.328Z,100779.59
2019-06-01T04:47:14.735Z,100779.73
2019-06-01T04:49:47.109Z,100779.39
2019-06-01T04:52:21.143Z,100778.12
2019-06-01T04:54:53.605Z,100781.00
2019-06-01T04:57:33.558Z,100782.81
2019-06-01T05:00:21.585Z,100775.91
2019-06-01T05:03:05.517Z,100782.84
2019-06-01T05:05:39.418Z,100779.24
2019-06-01T05:08:12.576Z,100777.34
2019-06-01T05:10:46.245Z,100774.65
2019-06-01T05:13:18.675Z,100772.30
2019-06-01T05:15:54.802Z,100768.80
2019-06-01T05:18:28.146Z,100764.45
2019-06-01T05:21:01.217Z,100760.82
2019-06-01T05:23:37.711Z,100764.59
2019-06-01T05:26:11.003Z,100763.64
2019-06-01T05:28:44.053Z,100759.61
2019-06-01T05:31:24.267Z,100756.14
2019-06-01T05:33:57.591Z,100756.31
2019-06-01T05:36:30.595Z,100755.59
2019-06-01T05:39:03.169Z,100753.13
2019-06-01T05:41:35.663Z,100762.24
2019-06-01T05:44:08.864Z,100760.67
2019-06-01T05:46:43.523Z,100752.12
2019-06-01T05:49:16.413Z,100752.48
2019-06-01T05:51:49.611Z,100750.77
2019-06-01T05:54:22.997Z,100750.83
2019-06-01T05:56:55.516Z,100752.17
2019-06-01T05:59:28.673Z,100750.97
2019-06-01T06:02:01.987Z,100753.91
2019-06-01T06:04:34.367Z,100755.81
2019-06-01T06:07:07.368Z,100765.00
2019-06-01T06:09:39.831Z,100759.49
2019-06-01T06:12:13.222Z,100753.13
2019-06-01T06:14:45.692Z,100760.47
2019-06-01T06:17:19.905Z,100757.02
2019-06-01T06:19:53.965Z,100758.05
2019-06-01T06:22:26.361Z,100750.73
2019-06-01T06:24:58.827Z,100739.71
2019-06-01T06:27:31.209Z,100736.32
2019-06-01T06:30:06.140Z,100741.55
2019-06-01T06:32:38.587Z,100738.47
2019-06-01T06:35:15.706Z,100734.55
2019-06-01T06:37:48.203Z,100742.88
2019-06-01T06:40:20.598Z,100746.11
2019-06-01T06:42:54.303Z,100743.88
2019-06-01T06:45:26.725Z,100750.42
2019-06-01T06:48:00.203Z,100752.28
2019-06-01T06:50:33.855Z,100751.48
2019-06-01T06:53:08.852Z,100750.25
2019-06-01T06:55:41.272Z,100757.61
2019-06-01T06:58:18.647Z,100748.17
2019-06-01T07:00:53.441Z,100757.89
2019-06-01T07:03:27.123Z,100761.20
2019-06-01T07:05:59.644Z,100766.88
2019-06-01T07:08:32.764Z,100767.06
2019-06-01T07:11:05.201Z,100760.11
2019-06-01T07:13:38.320Z,100757.52
2019-06-01T07:16:10.689Z,100760.70
2019-06-01T07:18:43.136Z,100767.03
2019-06-01T07:21:15.725Z,100765.81
2019-06-01T07:23:48.176Z,100768.53
2019-06-01T07:26:22.311Z,100766.08
2019-06-01T07:28:55.520Z,100765.35
2019-06-01T07:31:29.366Z,100760.21
2019-06-01T07:34:01.757Z,100764.67
2019-06-01T07:36:35.357Z,100768.59
2019-06-01T07:39:08.922Z,100764.76
2019-06-01T07:41:41.323Z,100763.77
2019-06-01T07:44:14.460Z,100771.28
2019-06-01T07:46:47.726Z,100771.47
2019-06-01T07:49:21.062Z,100762.80
2019-06-01T07:51:56.506Z,100763.86
2019-06-01T07:54:29.554Z,100763.23
2019-06-01T07:57:03.874Z,100764.24
2019-06-01T07:59:37.463Z,100760.36
2019-06-01T08:02:10.024Z,100760.86
2019-06-01T08:04:53.540Z,100767.19
2019-06-01T08:07:27.724Z,100757.77
2019-06-01T08:10:01.254Z,100755.22
2019-06-01T08:12:33.756Z,100756.41
2019-06-01T08:15:08.247Z,100755.45
2019-06-01T08:17:40.534Z,100761.65
2019-06-01T08:20:13.885Z,100755.25
2019-06-01T08:22:50.662Z,100763.68
2019-06-01T08:25:26.514Z,100754.47
2019-06-01T08:27:58.952Z,100753.45
2019-06-01T08:30:31.326Z,100754.45
2019-06-01T08:33:05.457Z,100752.31
2019-06-01T08:35:38.698Z,100753.45
2019-06-01T08:38:44.364Z,100747.06
2019-06-01T08:41:18.940Z,100747.54
2019-06-01T08:43:51.775Z,100749.28
2019-06-01T08:46:25.622Z,100752.08
2019-06-01T08:48:58.612Z,100758.28
2019-06-01T08:51:32.150Z,100753.47
2019-06-01T08:54:05.657Z,100748.84
2019-06-01T08:56:39.544Z,100742.24
2019-06-01T08:59:12.475Z,100738.58
2019-06-01T09:01:49.573Z,100733.89
2019-06-01T09:04:26.630Z,100740.28
2019-06-01T09:07:00.338Z,100732.85
2019-06-01T09:09:33.145Z,100734.77
2019-06-01T09:12:15.355Z,100729.52
2019-06-01T09:14:48.555Z,100726.31
2019-06-01T09:17:22.426Z,100728.86
2019-06-01T09:19:55.030Z,100730.14
2019-06-01T09:22:31.537Z,100729.36
2019-06-01T09:25:05.579Z,100731.22
2019-06-01T09:27:55.471Z,100726.30
2019-06-01T09:30:46.758Z,100727.02
2019-06-01T09:33:21.785Z,100730.61
2019-06-01T09:35:56.500Z,100727.14
2019-06-01T09:38:33.664Z,100725.17
2019-06-01T09:41:09.368Z,100717.28
2019-06-01T09:44:18.879Z,100721.91
2019-06-01T09:46:52.432Z,100716.66
2019-06-01T09:49:24.834Z,100719.03
2019-06-01T09:51:57.268Z,100717.71
2019-06-01T09:54:32.729Z,100714.63
2019-06-01T09:57:07.805Z,100714.22
2019-06-01T09:59:40.171Z,100711.20
2019-06-01T10:02:13.306Z,100719.89
2019-06-01T10:04:48.762Z,100712.30
2019-06-01T10:07:24.100Z,100706.62
2019-06-01T10:09:56.565Z,100706.98
2019-06-01T10:12:29.834Z,100705.20
2019-06-01T10:17:11.807Z,100710.53
2019-06-01T10:19:48.451Z,100712.09
2019-06-01T10:22:25.246Z,100707.58
2019-06-01T10:24:58.769Z,100705.13
2019-06-01T10:27:32.882Z,100706.41
2019-06-01T10:30:10.677Z,100709.16
2019-06-01T10:32:46.351Z,100709.25
2019-06-01T10:35:19.818Z,100706.68
2019-06-01T10:38:00.669Z,100698.01
2019-06-01T10:40:33.451Z,100693.00
2019-06-01T10:43:13.223Z,100688.01
2019-06-01T10:45:48.592Z,100684.63
2019-06-01T10:48:21.761Z,100680.23
2019-06-01T10:50:54.248Z,100677.33
2019-06-01T10:53:30.300Z,100678.05
2019-06-01T10:56:03.841Z,100672.05
2019-06-01T10:58:54.428Z,100675.19
2019-06-01T11:01:34.139Z,100676.22
2019-06-01T11:04:10.177Z,100679.02
2019-06-01T11:06:48.314Z,100678.71
2019-06-01T11:09:22.396Z,100676.77
2019-06-01T11:11:55.514Z,100670.05
2019-06-01T11:14:29.977Z,100669.69
2019-06-01T11:17:03.386Z,100666.46
2019-06-01T11:19:39.487Z,100663.17
2019-06-01T11:22:37.361Z,100660.91
2019-06-01T11:25:17.710Z,100657.86
2019-06-01T11:27:55.935Z,100652.00
2019-06-01T11:30:29.403Z,100652.48
2019-06-01T11:33:02.668Z,100649.65
2019-06-01T11:35:37.539Z,100650.45
2019-06-01T11:38:09.934Z,100647.51
2019-06-01T11:40:45.473Z,100646.20
2019-06-01T11:43:17.919Z,100647.88
2019-06-01T11:45:50.833Z,100642.83
2019-06-01T11:48:23.818Z,100637.08
2019-06-01T11:50:57.533Z,100636.17
2019-06-01T11:53:30.107Z,100628.77
2019-06-01T11:56:02.722Z,100629.81
2019-06-01T11:58:37.200Z,100630.55
2019-06-01T12:01:11.370Z,100622.44
2019-06-01T12:03:46.452Z,100620.94
2019-06-01T12:06:19.696Z,100622.55
2019-06-01T12:08:52.956Z,100621.84
2019-06-01T12:11:26.012Z,100616.09
2019-06-01T12:14:00.795Z,100613.76
2019-06-01T12:16:36.415Z,100613.08
2019-06-01T12:19:10.252Z,100609.20
2019-06-01T12:21:45.112Z,100608.61
2019-06-01T12:24:24.875Z,100605.17
2019-06-01T12:26:58.359Z,100608.42
2019-06-01T12:29:31.033Z,100610.16
2019-06-01T12:32:05.938Z,100604.86
2019-06-01T12:34:39.940Z,100600.99
2019-06-01T12:37:13.442Z,100602.55
2019-06-01T12:39:54.277Z,100595.59
2019-06-01T12:42:29.287Z,100585.48
2019-06-01T12:45:06.477Z,100579.64
2019-06-01T12:47:40.128Z,100572.69
2019-06-01T12:50:15.623Z,100571.83
2019-06-01T12:52:50.055Z,100564.02
2019-06-01T12:55:27.356Z,100571.31
2019-06-01T12:58:03.647Z,100567.80
2019-06-01T13:00:37.093Z,100566.51
2019-06-01T13:03:13.142Z,100562.77
2019-06-01T13:05:47.686Z,100556.28
2019-06-01T13:08:21.343Z,100556.25
2019-06-01T13:10:53.954Z,100547.56
2019-06-01T13:13:28.899Z,100548.91
2019-06-01T13:16:04.085Z,100556.54
2019-06-01T13:18:37.209Z,100548.77
2019-06-01T13:21:15.738Z,100542.06
2019-06-01T13:23:53.820Z,100537.56
2019-06-01T13:26:28.134Z,100540.73
2019-06-01T13:29:02.472Z,100538.06
2019-06-01T13:31:36.659Z,100538.56
2019-06-01T13:34:10.418Z,100532.89
2019-06-01T13:36:46.972Z,100535.91
2019-06-01T13:39:20.227Z,100525.85
2019-06-01T13:41:53.474Z,100524.16
2019-06-01T13:44:27.091Z,100525.48
2019-06-01T13:46:59.457Z,100521.33
2019-06-01T13:49:33.540Z,100514.47
2019-06-01T13:52:06.760Z,100512.77
2019-06-01T13:54:40.311Z,100507.98
2019-06-01T13:57:12.737Z,100509.05
2019-06-01T13:59:54.918Z,100507.47
2019-06-01T14:02:30.998Z,100504.44
2019-06-01T14:05:04.510Z,100504.73
2019-06-01T14:07:38.575Z,100503.12
2019-06-01T14:10:15.361Z,100501.81
2019-06-01T14:12:49.316Z,100495.88
2019-06-01T14:15:22.128Z,100493.31
2019-06-01T14:17:56.467Z,100494.13
2019-06-01T14:20:32.946Z,100486.47
2019-06-01T14:23:06.023Z,100485.80
2019-06-01T14:25:40.999Z,100481.75
2019-06-01T14:28:14.398Z,100483.45
2019-06-01T14:31:04.110Z,100483.31
2019-06-01T14:33:38.375Z,100479.92
2019-06-01T14:36:10.857Z,100481.92
2019-06-01T14:38:46.956Z,100483.36
2019-06-01T14:41:21.192Z,100479.44
2019-06-01T14:44:02.445Z,100479.12
2019-06-01T14:46:52.432Z,100471.55
2019-06-01T14:49:28.654Z,100472.14
2019-06-01T14:52:03.559Z,100465.22
2019-06-01T14:54:37.379Z,100463.94
2019-06-01T14:57:09.823Z,100461.67
2019-06-01T14:59:44.001Z,100463.52
2019-06-01T15:02:20.330Z,100458.81
2019-06-01T15:04:52.721Z,100457.19
2019-06-01T15:07:26.720Z,100457.08
2019-06-01T15:10:00.199Z,100452.08
2019-06-01T15:12:33.444Z,100451.33
2019-06-01T15:15:09.492Z,100448.95
2019-06-01T15:17:43.594Z,100443.10
2019-06-01T15:20:17.352Z,100443.23
2019-06-01T15:22:52.192Z,100440.27
2019-06-01T15:25:36.109Z,100445.26
2019-06-01T15:28:10.620Z,100445.03
2019-06-01T15:30:44.312Z,100442.60
2019-06-01T15:33:17.744Z,100440.74
2019-06-01T15:39:40.838Z,100434.11
2019-06-01T15:42:20.179Z,100430.00
2019-06-01T15:44:53.303Z,100425.73
2019-06-01T15:47:28.243Z,100419.33
2019-06-01T15:50:02.597Z,100415.34
2019-06-01T15:52:37.381Z,100416.75
2019-06-01T15:55:10.791Z,100413.28
2019-06-01T15:57:43.225Z,100406.73
2019-06-01T16:00:19.354Z,100406.06
2019-06-01T16:02:53.240Z,100408.81
2019-06-01T16:05:29.465Z,100404.08
2019-06-01T16:08:01.866Z,100398.14
2019-06-01T16:10:37.899Z,100401.02
2019-06-01T16:13:11.876Z,100400.00
2019-06-01T16:15:44.274Z,100397.98
2019-06-01T16:18:17.663Z,100392.98
2019-06-01T16:20:52.034Z,100392.47
2019-06-01T16:23:50.105Z,100391.87
2019-06-01T16:26:24.567Z,100393.03
2019-06-01T16:29:00.614Z,100390.88
2019-06-01T16:31:33.519Z,100386.78
2019-06-01T16:34:06.838Z,100385.13
2019-06-01T16:36:39.402Z,100384.98
2019-06-01T16:39:11.769Z,100382.09
2019-06-01T16:41:44.949Z,100378.72
2019-06-01T16:44:24.437Z,100378.95
2019-06-01T16:46:57.697Z,100384.84
2019-06-01T16:49:55.681Z,100385.95
2019-06-01T16:52:30.250Z,100382.77
2019-06-01T16:55:02.805Z,100379.27
2019-06-01T16:57:35.271Z,100375.44
2019-06-01T17:00:09.726Z,100374.12
2019-06-01T17:02:48.023Z,100366.02
2019-06-01T17:05:21.161Z,100366.17
2019-06-01T17:07:56.710Z,100362.49
2019-06-01T17:10:33.040Z,100360.88
2019-06-01T17:13:08.338Z,100358.58
2019-06-01T17:15:50.729Z,100360.48
2019-06-01T17:18:27.513Z,100357.80
2019-06-01T17:21:01.086Z,100360.80
2019-06-01T17:23:33.860Z,100359.59
2019-06-01T17:26:08.840Z,100353.95
2019-06-01T17:28:41.404Z,100354.08
2019-06-01T17:31:15.322Z,100351.14
2019-06-01T17:33:49.200Z,100346.69
2019-06-01T17:36:22.166Z,100346.00
2019-06-01T17:38:54.625Z,100349.02
2019-06-01T17:41:27.891Z,100346.27
2019-06-01T17:44:02.794Z,100349.41
2019-06-01T17:46:53.037Z,100346.95
2019-06-01T17:49:27.236Z,100346.55
2019-06-01T17:52:01.706Z,100350.00
2019-06-01T17:54:35.261Z,100349.20
2019-06-01T17:57:17.006Z,100349.31
2019-06-01T17:59:51.362Z,100347.20
2019-06-01T18:02:23.760Z,100346.36
2019-06-01T18:04:56.167Z,100343.45
2019-06-01T18:07:35.446Z,100342.13
2019-06-01T18:10:12.233Z,100344.94
2019-06-01T18:12:46.821Z,100340.09
2019-06-01T18:15:22.550Z,100341.97
2019-06-01T18:17:56.762Z,100342.39
2019-06-01T18:20:31.365Z,100339.18
2019-06-01T18:23:08.922Z,100336.42
2019-06-01T18:25:50.422Z,100335.77
2019-06-01T18:28:23.781Z,100337.14
2019-06-01T18:30:56.398Z,100338.17
2019-06-01T18:33:31.613Z,100341.29
2019-06-01T18:36:07.549Z,100337.70
2019-06-01T18:38:40.161Z,100338.95
2019-06-01T18:41:18.579Z,100336.70
2019-06-01T18:43:53.026Z,100337.48
2019-06-01T18:46:30.374Z,100336.52
2019-06-01T18:49:05.785Z,100333.73
2019-06-01T18:51:38.556Z,100333.71
2019-06-01T18:54:13.068Z,100331.10
2019-06-01T18:56:46.918Z,100330.88
2019-06-01T18:59:23.478Z,100332.03
2019-06-01T19:01:58.591Z,100331.86
2019-06-01T19:04:32.720Z,100329.47
2019-06-01T19:07:09.171Z,100327.16
2019-06-01T19:09:47.249Z,100326.67
2019-06-01T19:12:24.461Z,100329.27
2019-06-01T19:14:58.294Z,100324.70
2019-06-01T19:17:32.203Z,100325.50
2019-06-01T19:20:06.727Z,100321.92
2019-06-01T19:22:40.234Z,100320.86
2019-06-01T19:25:19.527Z,100322.57
2019-06-01T19:27:56.302Z,100323.23
2019-06-01T19:30:45.494Z,100321.28
2019-06-01T19:33:22.371Z,100325.42
2019-06-01T19:35:57.286Z,100322.04
2019-06-01T19:38:30.262Z,100324.16
2019-06-01T19:41:02.924Z,100326.33
2019-06-01T19:43:40.327Z,100327.22
2019-06-01T19:46:18.926Z,100328.47
2019-06-01T19:48:52.936Z,100330.50
2019-06-01T19:51:28.424Z,100329.42
2019-06-01T19:54:04.045Z,100328.78
2019-06-01T19:56:37.482Z,100323.71
2019-06-01T19:59:10.003Z,100327.15
2019-06-01T20:01:45.281Z,100326.89
2019-06-01T20:04:18.713Z,100329.42
2019-06-01T20:06:52.048Z,100331.33
2019-06-01T20:09:25.199Z,100333.23
2019-06-01T20:12:11.513Z,100336.55
2019-06-01T20:14:51.270Z,100339.30
2019-06-01T20:17:29.348Z,100335.08
2019-06-01T20:20:03.421Z,100336.94
2019-06-01T20:22:37.309Z,100335.84
2019-06-01T20:25:13.264Z,100334.24
2019-06-01T20:27:47.465Z,100330.66
2019-06-01T20:30:22.203Z,100331.44
2019-06-01T20:32:55.947Z,100329.74
2019-06-01T20:35:29.601Z,100326.18
2019-06-01T20:38:13.182Z,100328.21
2019-06-01T20:40:48.644Z,100324.98
2019-06-01T20:43:30.872Z,100325.25
2019-06-01T20:46:35.485Z,100323.38
2019-06-01T20:49:52.018Z,100319.38
2019-06-01T20:52:32.759Z,100315.73
2019-06-01T20:55:08.214Z,100316.82
2019-06-01T20:57:41.121Z,100317.67
2019-06-01T21:00:17.599Z,100319.45
2019-06-01T21:02:51.415Z,100321.92
2019-06-01T21:05:24.144Z,100318.87
2019-06-01T21:08:04.224Z,100314.78
2019-06-01T21:10:38.314Z,100315.88
2019-06-01T21:13:11.345Z,100314.05
2019-06-01T21:15:44.304Z,100317.23
2019-06-01T21:18:20.955Z,100314.02
2019-06-01T21:20:53.588Z,100312.16
2019-06-01T21:23:26.741Z,100310.36
2019-06-01T21:26:00.238Z,100312.95
2019-06-01T21:28:33.769Z,100312.81
2019-06-01T21:31:06.886Z,100313.04
2019-06-01T21:33:40.991Z,100307.82
2019-06-01T21:36:15.474Z,100311.45
2019-06-01T21:38:49.378Z,100309.52
2019-06-01T21:41:23.733Z,100306.39
2019-06-01T21:43:57.392Z,100303.62
2019-06-01T21:46:29.815Z,100303.44
2019-06-01T21:49:04.708Z,100302.98
2019-06-01T21:51:38.080Z,100301.13
2019-06-01T21:54:12.588Z,100298.16
2019-06-01T21:56:45.039Z,100298.17
2019-06-01T21:59:18.535Z,100294.88
2019-06-01T22:01:53.719Z,100292.95
2019-06-01T22:04:28.596Z,100294.70
2019-06-01T22:07:01.072Z,100295.72
2019-06-01T22:09:35.320Z,100289.46
2019-06-01T22:12:09.690Z,100290.28
2019-06-01T22:14:43.058Z,100288.17
2019-06-01T22:17:15.537Z,100285.88
2019-06-01T22:19:47.977Z,100283.84
2019-06-01T22:22:21.686Z,100279.93
2019-06-01T22:24:54.252Z,100277.53
2019-06-01T22:27:26.683Z,100278.68
2019-06-01T22:30:07.919Z,100278.08
2019-06-01T22:32:48.584Z,100272.49
2019-06-01T22:35:22.801Z,100271.13
2019-06-01T22:37:58.141Z,100269.34
2019-06-01T22:40:32.156Z,100269.95
2019-06-01T22:43:04.587Z,100272.00
2019-06-01T22:45:39.328Z,100269.03
2019-06-01T22:48:13.420Z,100264.71
2019-06-01T22:50:45.778Z,100264.58
2019-06-01T22:53:18.239Z,100263.04
2019-06-01T22:55:50.653Z,100259.17
2019-06-01T22:58:23.321Z,100259.76
2019-06-01T23:00:55.762Z,100261.30
2019-06-01T23:03:30.042Z,100255.53
2019-06-01T23:06:02.735Z,100258.34
2019-06-01T23:08:36.956Z,100257.73
2019-06-01T23:11:09.444Z,100254.45
2019-06-01T23:13:52.927Z,100256.06
2019-06-01T23:16:29.737Z,100258.47
2019-06-01T23:19:03.843Z,100256.52
2019-06-01T23:21:37.220Z,100251.73
2019-06-01T23:24:09.638Z,100248.97
2019-06-01T23:26:43.739Z,100246.14
2019-06-01T23:29:18.819Z,100244.61
2019-06-01T23:31:51.247Z,100244.63
2019-06-01T23:34:26.648Z,100244.85
2019-06-01T23:37:01.279Z,100244.27
2019-06-01T23:39:34.762Z,100238.91
2019-06-01T23:42:08.524Z,100232.00
2019-06-01T23:44:41.512Z,100230.47
2019-06-01T23:47:15.411Z,100229.09
2019-06-01T23:49:52.423Z,100228.54
2019-06-01T23:52:25.727Z,100225.41
2019-06-01T23:54:59.926Z,100221.64
2019-06-01T23:57:34.111Z,100220.15
